createdAt,value
2022-08-18T00:00:01.843Z,100915.78
2022-08-18T00:05:05.372Z,100906.81
2022-08-18T00:10:18.574Z,100914.81
2022-08-18T00:15:23.201Z,100907.69
2022-08-18T00:20:26.512Z,100898.78
2022-08-18T00:25:29.367Z,100896.09
2022-08-18T00:30:33.635Z,100889.78
2022-08-18T00:35:38.612Z,100889.78
2022-08-18T00:40:44.827Z,100901.44
2022-08-18T00:45:49.112Z,100883.63
2022-08-18T00:50:55.205Z,100886.34
2022-08-18T00:56:01.673Z,100880.97
2022-08-18T01:01:07.809Z,100889.88
2022-08-18T01:06:17.270Z,100921.16
2022-08-18T01:11:20.098Z,100930.06
2022-08-18T01:16:56.609Z,100916.56
2022-08-18T01:22:08.450Z,100905.00
2022-08-18T01:27:17.867Z,100913.03
2022-08-18T01:32:23.983Z,100911.28
2022-08-18T01:37:26.830Z,100895.19
2022-08-18T01:42:31.086Z,100883.59
2022-08-18T01:47:48.462Z,100881.81
2022-08-18T01:52:53.474Z,100885.38
2022-08-18T01:57:57.743Z,100893.44
2022-08-18T02:03:02.764Z,100894.34
2022-08-18T02:08:07.187Z,100880.13
2022-08-18T02:13:12.054Z,100873.03
2022-08-18T02:18:25.745Z,100880.16
2022-08-18T02:23:40.234Z,100873.94
2022-08-18T02:28:49.115Z,100873.94
2022-08-18T02:33:53.043Z,100865.88
2022-08-18T02:38:59.737Z,100864.06
2022-08-18T02:44:07.259Z,100864.94
2022-08-18T02:49:10.471Z,100861.38
2022-08-18T02:54:13.369Z,100853.25
2022-08-18T02:59:21.307Z,100857.63
2022-08-18T03:04:29.653Z,100862.97
2022-08-18T03:09:34.368Z,100859.38
2022-08-18T03:14:39.984Z,100845.94
2022-08-18T03:19:46.937Z,100842.25
2022-08-18T03:24:50.749Z,100848.47
2022-08-18T03:29:55.094Z,100843.06
2022-08-18T03:34:59.443Z,100837.69
2022-08-18T03:40:02.487Z,100839.44
2022-08-18T03:45:14.297Z,100845.59
2022-08-18T03:50:21.784Z,100848.19
2022-08-18T03:55:24.636Z,100842.81
2022-08-18T04:00:28.917Z,100841.88
2022-08-18T04:05:32.349Z,100841.84
2022-08-18T04:10:36.375Z,100853.41
2022-08-18T04:15:40.652Z,100865.84
2022-08-18T04:20:59.144Z,100865.81
2022-08-18T04:26:03.480Z,100856.75
2022-08-18T04:31:14.058Z,100850.47
2022-08-18T04:36:18.738Z,100848.69
2022-08-18T04:41:27.953Z,100854.88
2022-08-18T04:46:36.624Z,100846.75
2022-08-18T04:52:36.775Z,100852.94
2022-08-18T04:57:12.098Z,100858.22
2022-08-18T05:02:19.436Z,100853.72
2022-08-18T05:07:23.847Z,100866.22
2022-08-18T05:12:27.150Z,100859.03
2022-08-18T05:17:31.449Z,100865.31
2022-08-18T05:22:39.155Z,100873.41
2022-08-18T05:27:44.210Z,100871.59
2022-08-18T05:32:50.327Z,100859.22
2022-08-18T05:38:15.671Z,100862.72
2022-08-18T05:43:18.565Z,100856.50
2022-08-18T05:48:22.883Z,100865.53
2022-08-18T05:53:45.910Z,100863.81
2022-08-18T05:58:52.580Z,100860.34
2022-08-18T06:04:03.846Z,100856.97
2022-08-18T06:09:25.044Z,100872.31
2022-08-18T06:14:27.976Z,100871.56
2022-08-18T06:19:43.987Z,100874.44
2022-08-18T06:24:55.319Z,100864.78
2022-08-18T06:30:07.353Z,100874.75
2022-08-18T06:35:25.532Z,100879.31
2022-08-18T06:40:28.393Z,100877.69
2022-08-18T06:45:40.075Z,100866.13
2022-08-18T06:50:50.207Z,100870.63
2022-08-18T06:55:53.166Z,100874.22
2022-08-18T07:01:00.816Z,100868.91
2022-08-18T07:06:07.465Z,100870.69
2022-08-18T07:11:20.206Z,100862.59
2022-08-18T07:16:54.984Z,100864.38
2022-08-18T07:22:03.852Z,100868.81
2022-08-18T07:27:10.323Z,100858.94
2022-08-18T07:32:21.440Z,100865.03
2022-08-18T07:37:32.589Z,100866.78
2022-08-18T07:42:59.229Z,100862.22
2022-08-18T07:48:34.970Z,100868.25
2022-08-18T07:53:55.679Z,100871.88
2022-08-18T07:59:06.563Z,100864.63
2022-08-18T08:04:26.097Z,100868.28
2022-08-18T08:09:39.237Z,100876.16
2022-08-18T08:14:45.837Z,100883.84
2022-08-18T08:20:10.565Z,100889.56
2022-08-18T08:30:55.307Z,100886.47
2022-08-18T08:36:04.468Z,100890.41
2022-08-18T08:41:14.539Z,100887.03
2022-08-18T08:46:23.366Z,100873.84
2022-08-18T08:51:35.679Z,100873.56
2022-08-18T08:56:45.615Z,100883.34
2022-08-18T09:01:57.571Z,100879.53
2022-08-18T09:07:16.598Z,100871.59
2022-08-18T09:12:36.949Z,100855.53
2022-08-18T09:17:52.906Z,100855.66
2022-08-18T09:23:03.497Z,100846.69
2022-08-18T09:28:14.246Z,100846.19
2022-08-18T09:33:21.879Z,100833.41
2022-08-18T09:38:49.081Z,100836.06
2022-08-18T09:44:17.849Z,100830.84
2022-08-18T09:49:51.298Z,100835.50
2022-08-18T09:55:02.637Z,100841.91
2022-08-18T10:00:29.246Z,100837.00
2022-08-18T10:05:35.531Z,100835.75
2022-08-18T10:11:02.227Z,100823.16
2022-08-18T10:16:16.879Z,100823.75
2022-08-18T10:21:27.392Z,100818.94
2022-08-18T10:27:13.541Z,100809.75
2022-08-18T10:32:37.115Z,100806.69
2022-08-18T10:37:43.639Z,100807.56
2022-08-18T10:42:53.688Z,100809.28
2022-08-18T10:48:16.660Z,100812.38
2022-08-18T10:53:39.107Z,100808.78
2022-08-18T10:59:16.301Z,100809.72
2022-08-18T11:10:04.731Z,100803.16
2022-08-18T11:15:22.003Z,100820.59
2022-08-18T11:20:32.381Z,100808.81
2022-08-18T11:25:38.277Z,100820.41
2022-08-18T11:30:44.948Z,100816.16
2022-08-18T11:35:53.367Z,100800.41
2022-08-18T11:46:40.799Z,100804.03
2022-08-18T11:52:03.047Z,100797.09
2022-08-18T11:57:30.444Z,100801.03
2022-08-18T12:02:33.607Z,100795.84
2022-08-18T12:07:38.183Z,100789.88
2022-08-18T12:13:01.288Z,100796.44
2022-08-18T12:18:04.337Z,100794.81
2022-08-18T12:23:08.630Z,100779.19
2022-08-18T12:28:11.520Z,100767.66
2022-08-18T12:33:14.693Z,100766.00
2022-08-18T12:38:19.041Z,100764.94
2022-08-18T12:43:22.112Z,100754.31
2022-08-18T12:48:24.902Z,100747.50
2022-08-18T12:58:54.034Z,100749.81
2022-08-18T13:04:11.387Z,100751.88
2022-08-18T13:09:35.626Z,100742.97
2022-08-18T13:14:48.683Z,100737.66
2022-08-18T13:19:52.188Z,100740.91
2022-08-18T13:25:00.268Z,100746.75
2022-08-18T13:30:03.416Z,100736.44
2022-08-18T13:35:26.106Z,100743.53
2022-08-18T13:40:34.510Z,100735.38
2022-08-18T13:45:39.470Z,100743.53
2022-08-18T13:50:42.637Z,100754.00
2022-08-18T13:55:49.792Z,100749.63
2022-08-18T14:01:05.524Z,100762.97
2022-08-18T14:06:22.878Z,100756.31
2022-08-18T14:11:33.228Z,100735.66
2022-08-18T14:16:36.370Z,100740.53
2022-08-18T14:22:05.470Z,100740.75
2022-08-18T14:27:10.219Z,100728.38
2022-08-18T14:32:17.953Z,100731.31
2022-08-18T14:37:25.122Z,100735.28
2022-08-18T14:42:32.866Z,100730.56
2022-08-18T14:47:44.442Z,100730.06
2022-08-18T14:52:51.066Z,100730.88
2022-08-18T14:57:55.494Z,100734.00
2022-08-18T15:03:04.404Z,100745.88
2022-08-18T15:08:08.944Z,100745.66
2022-08-18T15:13:13.786Z,100761.50
2022-08-18T15:18:22.889Z,100754.19
2022-08-18T15:23:43.712Z,100758.78
2022-08-18T15:28:47.951Z,100762.50
2022-08-18T15:33:54.455Z,100771.75
2022-08-18T15:39:01.163Z,100761.53
2022-08-18T15:44:07.632Z,100765.94
2022-08-18T15:49:14.932Z,100774.47
2022-08-18T15:54:19.459Z,100776.81
2022-08-18T15:59:23.987Z,100778.81
2022-08-18T16:04:39.437Z,100785.19
2022-08-18T16:09:43.037Z,100788.44
2022-08-18T16:14:47.176Z,100787.91
2022-08-18T16:19:50.316Z,100792.72
2022-08-18T16:24:55.140Z,100788.16
2022-08-18T16:29:59.510Z,100792.91
2022-08-18T16:35:02.339Z,100789.50
2022-08-18T16:40:06.501Z,100781.59
2022-08-18T16:45:12.333Z,100800.53
2022-08-18T16:50:18.614Z,100803.13
2022-08-18T16:55:22.099Z,100803.41
2022-08-18T17:00:44.174Z,100804.94
2022-08-18T17:05:46.980Z,100812.34
2022-08-18T17:10:49.810Z,100798.31
2022-08-18T17:15:53.953Z,100807.72
2022-08-18T17:20:56.869Z,100808.94
2022-08-18T17:26:02.774Z,100799.41
2022-08-18T17:31:08.299Z,100801.63
2022-08-18T17:36:17.893Z,100792.78
2022-08-18T17:41:23.188Z,100784.91
2022-08-18T17:46:31.191Z,100778.94
2022-08-18T17:51:43.514Z,100783.63
2022-08-18T17:56:55.129Z,100788.31
2022-08-18T18:02:18.361Z,100780.28
2022-08-18T18:07:38.538Z,100801.03
2022-08-18T18:12:42.281Z,100808.34
2022-08-18T18:17:46.553Z,100814.75
2022-08-18T18:22:49.606Z,100830.16
2022-08-18T18:27:52.715Z,100847.25
2022-08-18T18:33:02.755Z,100849.91
2022-08-18T18:38:23.650Z,100849.94
2022-08-18T18:43:29.848Z,100861.81
2022-08-18T18:48:51.852Z,100879.84
2022-08-18T18:54:02.271Z,100887.94
2022-08-18T18:59:19.998Z,100879.03
2022-08-18T19:04:30.148Z,100883.59
2022-08-18T19:09:43.214Z,100891.78
2022-08-18T19:15:00.318Z,100905.28
2022-08-18T19:20:09.505Z,100905.31
2022-08-18T19:25:19.004Z,100896.34
2022-08-18T19:30:23.013Z,100922.41
2022-08-18T19:35:35.896Z,100949.38
2022-08-18T19:40:48.186Z,100935.00
2022-08-18T19:45:57.803Z,100932.31
2022-08-18T19:51:10.227Z,100936.78
2022-08-18T19:56:25.933Z,100936.78
2022-08-18T20:01:40.071Z,100924.22
2022-08-18T20:07:17.900Z,100922.38
2022-08-18T20:12:37.952Z,100904.44
2022-08-18T20:18:04.282Z,100893.69
2022-08-18T20:23:34.117Z,100886.53
2022-08-18T20:28:40.241Z,100885.63
2022-08-18T20:33:47.361Z,100865.91
2022-08-18T20:38:54.135Z,100864.19
2022-08-18T20:44:02.383Z,100837.44
2022-08-18T20:49:21.774Z,100840.22
2022-08-18T20:54:57.099Z,100850.06
2022-08-18T21:00:12.254Z,100859.91
2022-08-18T21:05:28.306Z,100859.06
2022-08-18T21:10:34.499Z,100858.13
2022-08-18T21:15:39.108Z,100864.41
2022-08-18T21:20:42.946Z,100875.19
2022-08-18T21:25:53.389Z,100875.16
2022-08-18T21:31:42.861Z,100891.28
2022-08-18T21:36:25.377Z,100885.91
2022-08-18T21:41:32.251Z,100894.84
2022-08-18T21:46:35.807Z,100906.50
2022-08-18T21:51:45.955Z,100900.22
2022-08-18T21:57:11.120Z,100896.63
2022-08-18T22:02:21.897Z,100896.63
2022-08-18T22:07:34.937Z,100906.47
2022-08-18T22:13:09.336Z,100921.72
2022-08-18T22:18:35.610Z,100916.34
2022-08-18T22:23:57.301Z,100913.63
2022-08-18T22:29:13.133Z,100913.63
2022-08-18T22:34:27.853Z,100924.41
2022-08-18T22:39:34.634Z,100913.66
2022-08-18T22:44:39.276Z,100908.25
2022-08-18T22:49:42.340Z,100902.88
2022-08-18T22:54:45.145Z,100891.16
2022-08-18T22:59:49.336Z,100874.19
2022-08-18T23:04:52.786Z,100874.09
2022-08-18T23:09:55.611Z,100881.97
2022-08-18T23:15:00.912Z,100875.72
2022-08-18T23:20:04.936Z,100863.22
2022-08-18T23:25:10.121Z,100861.34
2022-08-18T23:30:14.696Z,100864.94
2022-08-18T23:35:17.510Z,100865.00
2022-08-18T23:40:20.603Z,100872.19
2022-08-18T23:45:25.695Z,100870.50
2022-08-18T23:50:29.369Z,100875.00
2022-08-18T23:55:33.760Z,100883.94
